Time;durP1;ratioP1;P1;durP2;ratioP2;P2;SDS_P1;SDS_P2;PMS_P1;PMS_P2;Temp;Humidity;BMP_temperature;BMP_pressure;BME280_temperature;BME280_humidity;BME280_pressure;Samples;Min_cycle;Max_cycle;Signal;HPM_P1;HPM_P2
2023/07/20 00:00:02;;;;;;;3.05;1.88;;;16.30;99.90;;;;;;5012251;28;20507;-45
2023/07/20 00:02:27;;;;;;;4.65;2.40;;;16.30;99.90;;;;;;5011667;28;20026;-45
2023/07/20 00:04:53;;;;;;;2.05;1.77;;;16.20;99.90;;;;;;5012563;28;20402;-45
2023/07/20 00:07:18;;;;;;;3.17;2.17;;;16.10;99.90;;;;;;5012273;28;20065;-45
2023/07/20 00:09:44;;;;;;;3.97;2.42;;;16.10;99.90;;;;;;5012043;28;20030;-46
2023/07/20 00:12:09;;;;;;;4.47;2.03;;;16.00;99.90;;;;;;5026782;28;20110;-46
2023/07/20 00:14:35;;;;;;;2.50;1.95;;;16.00;99.90;;;;;;5012168;28;20032;-46
2023/07/20 00:17:02;;;;;;;3.25;2.15;;;15.90;99.90;;;;;;5012020;28;20018;-45
2023/07/20 00:19:28;;;;;;;2.17;2.00;;;15.90;99.90;;;;;;5012051;28;20028;-45
2023/07/20 00:21:54;;;;;;;2.42;2.22;;;15.80;99.90;;;;;;5011388;28;20495;-46
2023/07/20 00:24:20;;;;;;;3.80;2.15;;;15.80;99.90;;;;;;5010678;28;20033;-45
2023/07/20 00:26:46;;;;;;;2.70;2.50;;;15.80;99.90;;;;;;5010701;28;20027;-45
2023/07/20 00:29:12;;;;;;;3.58;2.10;;;15.80;99.90;;;;;;5011764;28;20030;-45
2023/07/20 00:31:37;;;;;;;1.98;1.77;;;15.80;99.90;;;;;;5026523;28;20034;-46
2023/07/20 00:34:04;;;;;;;3.47;2.20;;;15.70;99.90;;;;;;5011591;28;20040;-45
2023/07/20 00:36:29;;;;;;;2.22;2.03;;;15.80;99.90;;;;;;5012007;28;20014;-45
2023/07/20 00:38:55;;;;;;;2.58;2.20;;;15.80;99.90;;;;;;5011649;28;20084;-46
2023/07/20 00:41:21;;;;;;;2.00;1.80;;;15.80;99.90;;;;;;5011442;28;20117;-45
2023/07/20 00:43:46;;;;;;;2.63;1.98;;;15.80;99.90;;;;;;5010975;28;20109;-46
2023/07/20 00:46:13;;;;;;;3.03;2.55;;;15.80;99.90;;;;;;5011455;28;20041;-46
2023/07/20 00:48:39;;;;;;;4.22;1.98;;;15.80;99.90;;;;;;5011765;28;20069;-45
2023/07/20 00:51:05;;;;;;;2.00;1.80;;;15.80;99.90;;;;;;5011241;28;20226;-46
2023/07/20 00:53:30;;;;;;;6.22;2.13;;;15.80;99.90;;;;;;5010814;28;20034;-45
2023/07/20 00:55:57;;;;;;;3.20;2.15;;;15.80;99.90;;;;;;5011287;28;20120;-45
2023/07/20 00:58:23;;;;;;;2.10;2.00;;;15.80;99.90;;;;;;5011145;28;20084;-45
2023/07/20 01:00:48;;;;;;;3.97;1.98;;;15.70;99.90;;;;;;5011097;28;20014;-46
2023/07/20 01:03:14;;;;;;;2.72;2.22;;;15.70;99.90;;;;;;5025891;28;20150;-46
2023/07/20 01:06:08;;;;;;;3.20;2.20;;;15.60;99.90;;;;;;5010490;28;20032;-45
2023/07/20 01:08:40;;;;;;;6.45;2.63;;;15.60;99.90;;;;;;5010936;28;20395;-45
2023/07/20 01:11:31;;;;;;;4.30;2.45;;;15.50;99.90;;;;;;5010969;28;20036;-46
2023/07/20 01:13:57;;;;;;;2.50;2.30;;;15.50;99.90;;;;;;5010852;28;20029;-45
2023/07/20 01:16:24;;;;;;;2.75;1.70;;;15.50;99.90;;;;;;5011290;28;20025;-45
2023/07/20 01:18:49;;;;;;;2.65;2.20;;;15.40;99.90;;;;;;5010413;28;20418;-45
2023/07/20 01:21:42;;;;;;;2.78;2.30;;;15.40;99.90;;;;;;5012001;28;20025;-45
2023/07/20 01:24:33;;;;;;;2.53;2.33;;;15.30;99.90;;;;;;5009152;28;20061;-46
2023/07/20 01:27:06;;;;;;;2.30;2.10;;;15.30;99.90;;;;;;5010829;28;20092;-45
2023/07/20 01:29:37;;;;;;;4.03;2.30;;;15.20;99.90;;;;;;5011137;28;20101;-45
2023/07/20 01:32:07;;;;;;;3.05;2.60;;;15.20;99.90;;;;;;5009997;28;20117;-45
2023/07/20 01:34:35;;;;;;;2.80;2.53;;;15.10;99.90;;;;;;5010169;28;20022;-45
2023/07/20 01:37:01;;;;;;;6.50;2.85;;;15.10;99.90;;;;;;5010630;28;20021;-45
2023/07/20 01:39:27;;;;;;;4.00;2.53;;;15.00;99.90;;;;;;5007883;28;20526;-45
2023/07/20 01:41:53;;;;;;;5.00;2.70;;;15.00;99.90;;;;;;5005676;28;20034;-45
2023/07/20 01:44:18;;;;;;;6.35;2.40;;;15.00;99.90;;;;;;5017782;28;20372;-45
2023/07/20 01:46:44;;;;;;;2.33;2.13;;;15.00;99.90;;;;;;5004528;28;20030;-46
2023/07/20 01:49:09;;;;;;;3.65;2.38;;;14.90;99.90;;;;;;5004798;28;20029;-46
2023/07/20 01:51:35;;;;;;;3.42;2.42;;;14.80;99.90;;;;;;5008645;28;20084;-47
2023/07/20 01:54:00;;;;;;;2.60;2.10;;;14.80;99.90;;;;;;5008946;28;20018;-48
2023/07/20 01:56:26;;;;;;;3.65;2.30;;;14.80;99.90;;;;;;5009479;28;20050;-47
2023/07/20 01:58:52;;;;;;;2.47;2.22;;;14.80;99.90;;;;;;5002839;28;20367;-47
2023/07/20 02:01:17;;;;;;;2.72;2.53;;;14.80;99.90;;;;;;5009626;28;20518;-47
2023/07/20 02:03:43;;;;;;;4.07;2.70;;;14.70;99.90;;;;;;5000989;28;20383;-46
2023/07/20 02:06:08;;;;;;;3.15;2.33;;;14.60;99.90;;;;;;5003023;28;20041;-46
2023/07/20 02:08:34;;;;;;;2.80;2.40;;;14.60;99.90;;;;;;5016491;28;20388;-46
2023/07/20 02:10:59;;;;;;;2.63;2.33;;;14.60;99.90;;;;;;5004382;28;20113;-45
2023/07/20 02:13:25;;;;;;;3.17;2.88;;;14.60;99.90;;;;;;5000978;28;20038;-45
2023/07/20 02:15:50;;;;;;;5.63;2.53;;;14.60;99.90;;;;;;5003832;28;20360;-46
2023/07/20 02:18:16;;;;;;;3.38;2.55;;;14.60;99.90;;;;;;5015305;28;20026;-45
2023/07/20 02:20:42;;;;;;;3.13;2.15;;;14.50;99.90;;;;;;5003929;28;20018;-45
2023/07/20 02:23:07;;;;;;;3.95;2.28;;;14.50;99.90;;;;;;5002315;28;20307;-45
2023/07/20 02:25:33;;;;;;;3.50;2.92;;;14.50;99.90;;;;;;5002183;28;20030;-47
2023/07/20 02:27:59;;;;;;;2.50;2.30;;;14.50;99.90;;;;;;5003892;28;20476;-46
2023/07/20 02:30:24;;;;;;;3.03;2.20;;;14.50;99.90;;;;;;5024639;28;20030;-46
2023/07/20 02:32:50;;;;;;;2.60;2.25;;;14.50;99.90;;;;;;5008888;28;20026;-46
2023/07/20 02:35:16;;;;;;;2.53;2.30;;;14.50;99.90;;;;;;5007814;28;20049;-45
2023/07/20 02:37:41;;;;;;;2.50;2.30;;;14.50;99.90;;;;;;5009351;28;20028;-45
2023/07/20 02:40:08;;;;;;;4.68;2.65;;;14.50;99.90;;;;;;5009401;28;20018;-46
2023/07/20 02:42:34;;;;;;;5.35;2.67;;;14.60;99.90;;;;;;5007608;28;20129;-45
2023/07/20 02:44:59;;;;;;;2.35;2.05;;;14.60;99.90;;;;;;5009335;28;20084;-45
2023/07/20 02:47:25;;;;;;;3.25;2.38;;;14.60;99.90;;;;;;5009573;28;20242;-45
2023/07/20 02:49:50;;;;;;;2.70;2.20;;;14.60;99.90;;;;;;5009281;28;20430;-45
2023/07/20 02:52:16;;;;;;;3.75;2.78;;;14.60;99.90;;;;;;5009424;28;20026;-45
2023/07/20 02:54:41;;;;;;;3.95;3.00;;;14.70;99.90;;;;;;5009043;28;20546;-45
2023/07/20 02:57:07;;;;;;;2.47;2.28;;;14.70;99.90;;;;;;5009355;28;20080;-46
2023/07/20 02:59:32;;;;;;;2.58;2.38;;;14.60;99.90;;;;;;5009310;28;20303;-46
2023/07/20 03:01:58;;;;;;;3.13;2.45;;;14.60;99.90;;;;;;5023810;28;20101;-45
2023/07/20 03:04:26;;;;;;;2.83;2.40;;;14.60;99.90;;;;;;5009026;28;20030;-46
2023/07/20 03:06:52;;;;;;;3.17;2.60;;;14.60;99.90;;;;;;5008980;28;20285;-45
2023/07/20 03:09:17;;;;;;;3.55;2.40;;;14.60;99.90;;;;;;5009014;28;20363;-45
2023/07/20 03:11:43;;;;;;;2.50;2.30;;;14.60;99.90;;;;;;5008888;28;20391;-45
2023/07/20 03:14:10;;;;;;;4.10;2.40;;;14.60;99.90;;;;;;5009286;28;20030;-45
2023/07/20 03:16:36;;;;;;;3.88;3.03;;;14.60;99.90;;;;;;5009416;28;20041;-46
2023/07/20 03:19:01;;;;;;;2.60;2.40;;;14.60;99.90;;;;;;5023800;28;20014;-45
2023/07/20 03:21:27;;;;;;;3.90;2.17;;;14.60;99.90;;;;;;5009233;28;20398;-46
2023/07/20 03:23:52;;;;;;;3.72;2.15;;;14.50;99.90;;;;;;5008691;28;20034;-46
2023/07/20 03:26:18;;;;;;;2.28;2.08;;;14.50;99.90;;;;;;5009258;28;20049;-45
2023/07/20 03:28:43;;;;;;;5.32;2.20;;;14.50;99.90;;;;;;5027372;28;20022;-45
2023/07/20 03:31:09;;;;;;;2.30;2.20;;;14.50;99.90;;;;;;5012969;28;20026;-46
2023/07/20 03:33:35;;;;;;;2.30;2.10;;;14.50;99.90;;;;;;5012668;28;20381;-46
2023/07/20 03:36:00;;;;;;;3.78;2.60;;;14.50;99.90;;;;;;5013055;28;20053;-46
2023/07/20 03:38:27;;;;;;;2.38;2.17;;;14.50;99.90;;;;;;5012782;28;20022;-45
2023/07/20 03:40:57;;;;;;;4.30;1.98;;;14.50;99.90;;;;;;5027644;28;20026;-45
2023/07/20 03:43:23;;;;;;;2.20;2.00;;;14.50;99.90;;;;;;5012335;28;20029;-45
2023/07/20 03:45:50;;;;;;;2.00;1.88;;;14.50;99.90;;;;;;5012885;28;20574;-45
2023/07/20 03:48:16;;;;;;;2.42;2.08;;;14.50;99.90;;;;;;5012708;28;20105;-46
2023/07/20 03:50:44;;;;;;;2.33;2.08;;;14.40;99.90;;;;;;5012570;28;20030;-46
2023/07/20 03:53:09;;;;;;;2.83;2.00;;;14.40;99.90;;;;;;5011819;28;20026;-46
2023/07/20 03:55:35;;;;;;;2.58;2.10;;;14.40;99.90;;;;;;5012772;28;20348;-47
2023/07/20 03:58:01;;;;;;;4.68;2.45;;;14.40;99.90;;;;;;5011039;28;20026;-45
2023/07/20 04:00:27;;;;;;;3.33;1.90;;;14.40;99.90;;;;;;5011865;28;20029;-48
2023/07/20 04:02:52;;;;;;;3.38;2.13;;;14.50;99.90;;;;;;5011413;28;20065;-47
2023/07/20 04:05:18;;;;;;;3.58;2.10;;;14.50;99.90;;;;;;5012004;28;20113;-50
2023/07/20 04:07:43;;;;;;;3.45;2.17;;;14.50;99.90;;;;;;5011944;28;20034;-47
2023/07/20 04:10:09;;;;;;;1.75;1.65;;;14.50;99.90;;;;;;5011769;28;20431;-45
2023/07/20 04:12:35;;;;;;;2.35;2.15;;;14.50;99.90;;;;;;5026929;28;20080;-46
2023/07/20 04:15:03;;;;;;;1.80;1.70;;;14.50;99.90;;;;;;5011862;28;20083;-45
2023/07/20 04:17:28;;;;;;;1.70;1.60;;;14.60;99.90;;;;;;5011792;28;20460;-45
2023/07/20 04:19:54;;;;;;;2.30;1.75;;;14.60;99.90;;;;;;5011718;28;20096;-46
2023/07/20 04:22:19;;;;;;;2.40;2.20;;;14.70;99.90;;;;;;5019213;28;20091;-45
2023/07/20 04:24:45;;;;;;;2.90;1.77;;;14.60;99.90;;;;;;5011715;28;20030;-45
2023/07/20 04:27:10;;;;;;;2.40;1.63;;;14.70;99.90;;;;;;5011812;28;20029;-47
2023/07/20 04:29:36;;;;;;;3.70;2.05;;;14.80;99.90;;;;;;5011662;28;20034;-46
2023/07/20 04:32:02;;;;;;;2.45;2.10;;;14.80;99.90;;;;;;5010982;28;20029;-46
2023/07/20 04:34:27;;;;;;;1.90;1.70;;;14.80;99.90;;;;;;5011702;28;20022;-45
2023/07/20 04:36:53;;;;;;;1.75;1.63;;;14.90;99.90;;;;;;5011575;28;20329;-46
2023/07/20 04:39:18;;;;;;;2.33;1.83;;;14.90;99.90;;;;;;5011431;28;20399;-46
2023/07/20 04:41:44;;;;;;;2.65;1.95;;;14.90;99.90;;;;;;5026353;28;20029;-46
2023/07/20 04:44:09;;;;;;;1.80;1.70;;;14.90;99.90;;;;;;5011412;28;20033;-46
2023/07/20 04:46:35;;;;;;;3.35;1.60;;;14.80;99.90;;;;;;5006903;28;20419;-46
2023/07/20 04:49:01;;;;;;;2.17;1.80;;;14.90;99.90;;;;;;5011150;28;20053;-45
2023/07/20 04:51:27;;;;;;;1.70;1.60;;;14.90;99.90;;;;;;5017063;28;20418;-46
2023/07/20 04:53:52;;;;;;;2.10;1.55;;;15.00;99.90;;;;;;5027241;28;20032;-45
2023/07/20 04:56:18;;;;;;;3.20;1.83;;;15.00;99.90;;;;;;5011111;28;20181;-45
2023/07/20 04:58:43;;;;;;;3.35;1.70;;;15.20;99.90;;;;;;5025842;28;20022;-46
2023/07/20 05:01:09;;;;;;;3.42;1.90;;;15.30;99.90;;;;;;5026196;28;20026;-46
2023/07/20 05:03:34;;;;;;;2.55;1.85;;;15.30;99.90;;;;;;5010489;28;20113;-45
2023/07/20 05:06:00;;;;;;;2.50;1.73;;;15.50;99.90;;;;;;5010451;28;20545;-48
2023/07/20 05:08:25;;;;;;;1.92;1.73;;;15.60;99.90;;;;;;5010576;28;20042;-48
2023/07/20 05:10:51;;;;;;;3.88;1.73;;;15.70;99.90;;;;;;5010535;28;20037;-46
2023/07/20 05:13:16;;;;;;;2.85;2.00;;;15.80;99.90;;;;;;5010197;28;20026;-46
2023/07/20 05:15:42;;;;;;;2.03;1.63;;;15.90;99.90;;;;;;5026104;28;20124;-49
2023/07/20 05:18:08;;;;;;;2.90;1.65;;;15.90;99.90;;;;;;5010952;28;20214;-45
2023/07/20 05:20:34;;;;;;;2.60;1.92;;;15.90;99.90;;;;;;5010391;28;20368;-49
2023/07/20 05:23:01;;;;;;;2.78;1.77;;;15.90;99.90;;;;;;5017687;28;20026;-46
2023/07/20 05:25:26;;;;;;;3.58;1.52;;;15.90;99.90;;;;;;5011186;28;20034;-46
2023/07/20 05:27:52;;;;;;;2.03;1.58;;;15.80;99.90;;;;;;5009823;28;20030;-49
2023/07/20 05:30:18;;;;;;;1.50;1.40;;;15.80;99.90;;;;;;5011257;28;20025;-45
2023/07/20 05:32:47;;;;;;;4.32;1.98;;;15.90;99.90;;;;;;5010041;28;20065;-48
2023/07/20 05:35:13;;;;;;;3.08;2.00;;;15.90;99.90;;;;;;5010689;28;20109;-48
2023/07/20 05:37:39;;;;;;;2.75;1.55;;;15.90;99.90;;;;;;5009219;28;20018;-48
2023/07/20 05:40:07;;;;;;;1.73;1.52;;;15.90;99.90;;;;;;5010238;28;20033;-49
2023/07/20 05:42:33;;;;;;;2.42;1.90;;;15.90;99.90;;;;;;5010161;28;20061;-45
2023/07/20 05:44:58;;;;;;;2.42;1.58;;;16.00;99.90;;;;;;5010306;28;20054;-48
2023/07/20 05:47:24;;;;;;;2.60;1.95;;;16.00;99.90;;;;;;5010354;28;20439;-46
2023/07/20 05:49:49;;;;;;;2.42;1.52;;;15.90;99.90;;;;;;5009538;28;20030;-45
2023/07/20 05:52:15;;;;;;;2.05;1.75;;;15.90;99.90;;;;;;5017468;28;20034;-46
2023/07/20 05:54:41;;;;;;;4.80;2.28;;;15.90;99.90;;;;;;5010373;28;20025;-47
2023/07/20 05:57:06;;;;;;;2.75;2.45;;;15.90;99.90;;;;;;5010346;28;20613;-47
2023/07/20 05:59:32;;;;;;;2.03;1.77;;;15.80;99.90;;;;;;5010254;28;20033;-46
2023/07/20 06:01:57;;;;;;;7.55;2.60;;;15.90;99.90;;;;;;5010055;28;20066;-45
2023/07/20 06:04:23;;;;;;;5.10;2.17;;;15.80;99.90;;;;;;5009902;28;20120;-46
2023/07/20 06:06:49;;;;;;;2.38;1.92;;;15.80;99.90;;;;;;5024945;28;20041;-46
2023/07/20 06:09:15;;;;;;;4.03;1.83;;;15.80;99.90;;;;;;5010123;28;20422;-45
2023/07/20 06:11:41;;;;;;;4.03;2.53;;;15.70;99.90;;;;;;5017560;28;20029;-46
2023/07/20 06:14:06;;;;;;;2.90;1.90;;;15.60;99.90;;;;;;5009878;28;20021;-46
2023/07/20 06:16:32;;;;;;;2.85;2.00;;;15.60;99.90;;;;;;5010138;28;20097;-50
2023/07/20 06:19:00;;;;;;;3.08;2.00;;;15.60;99.90;;;;;;5009696;28;20032;-45
2023/07/20 06:21:25;;;;;;;4.18;2.25;;;15.60;99.90;;;;;;5009567;28;20105;-46
2023/07/20 06:23:51;;;;;;;3.55;2.10;;;15.60;99.90;;;;;;5009509;28;20097;-46
2023/07/20 06:26:16;;;;;;;2.60;2.20;;;15.60;99.90;;;;;;5009535;28;20038;-46
2023/07/20 06:28:42;;;;;;;2.75;2.55;;;15.60;99.90;;;;;;5009986;28;20034;-46
2023/07/20 06:31:07;;;;;;;3.00;2.33;;;15.60;99.90;;;;;;5009749;28;20495;-46
2023/07/20 06:33:34;;;;;;;2.40;2.20;;;15.60;99.90;;;;;;5008895;28;20392;-48
2023/07/20 06:36:00;;;;;;;3.28;2.72;;;15.70;99.90;;;;;;5009377;28;20011;-46
2023/07/20 06:38:25;;;;;;;3.70;3.00;;;15.70;99.90;;;;;;5009646;28;20033;-47
2023/07/20 06:40:51;;;;;;;2.78;2.55;;;15.60;99.90;;;;;;5023377;28;20034;-45
2023/07/20 06:43:17;;;;;;;4.95;3.95;;;15.70;99.90;;;;;;5001654;28;20034;-47
2023/07/20 06:45:42;;;;;;;5.07;3.70;;;15.60;99.90;;;;;;5009390;28;20030;-46
2023/07/20 06:48:08;;;;;;;5.13;4.35;;;15.60;99.90;;;;;;5008043;28;20029;-46
2023/07/20 06:50:34;;;;;;;5.20;3.78;;;15.50;99.90;;;;;;5009071;28;20036;-45
2023/07/20 06:53:00;;;;;;;4.78;4.10;;;15.40;99.90;;;;;;5008400;28;20025;-47
2023/07/20 06:55:26;;;;;;;4.00;3.35;;;15.30;99.90;;;;;;5009359;28;20021;-46
2023/07/20 06:57:51;;;;;;;4.30;3.63;;;15.40;99.90;;;;;;5009058;28;20057;-45
2023/07/20 07:00:17;;;;;;;4.28;3.65;;;15.30;99.90;;;;;;5009189;28;20338;-45
2023/07/20 07:02:43;;;;;;;5.80;3.50;;;15.30;99.90;;;;;;5010380;28;20022;-46
2023/07/20 07:05:09;;;;;;;2.65;2.40;;;15.20;99.90;;;;;;5011567;28;20396;-45
2023/07/20 07:07:34;;;;;;;3.83;2.75;;;15.20;99.90;;;;;;5008578;28;20495;-47
2023/07/20 07:10:00;;;;;;;3.58;1.98;;;15.20;99.90;;;;;;5012969;28;20066;-45
2023/07/20 07:12:26;;;;;;;5.47;1.80;;;15.10;99.90;;;;;;5012378;28;20034;-45
2023/07/20 07:14:52;;;;;;;1.95;1.52;;;15.20;99.90;;;;;;5013065;28;20053;-46
2023/07/20 07:17:18;;;;;;;1.58;1.48;;;15.30;99.90;;;;;;5012040;28;20022;-45
2023/07/20 07:19:44;;;;;;;4.57;1.63;;;15.40;99.90;;;;;;5012982;28;20430;-46
2023/07/20 07:22:10;;;;;;;2.47;1.27;;;15.60;99.90;;;;;;5012624;28;20014;-46
2023/07/20 07:24:35;;;;;;;1.42;1.20;;;15.60;99.90;;;;;;5012935;28;20364;-46
2023/07/20 07:27:02;;;;;;;3.17;1.23;;;15.80;99.90;;;;;;5012667;28;20109;-46
2023/07/20 07:29:27;;;;;;;1.95;1.17;;;15.90;99.90;;;;;;5012967;28;20034;-49
2023/07/20 07:31:53;;;;;;;2.72;0.80;;;16.00;99.90;;;;;;5011004;28;20021;-46
2023/07/20 07:34:18;;;;;;;1.20;0.80;;;16.10;99.90;;;;;;5012662;28;20030;-46
2023/07/20 07:36:45;;;;;;;3.05;1.00;;;16.20;99.90;;;;;;5012762;28;20050;-46
2023/07/20 07:39:11;;;;;;;1.95;0.90;;;16.40;99.90;;;;;;5012478;28;20014;-46
2023/07/20 07:41:36;;;;;;;1.05;0.70;;;16.60;99.90;;;;;;5012480;28;20427;-49
2023/07/20 07:44:02;;;;;;;1.88;0.90;;;16.90;99.90;;;;;;5012475;28;20022;-45
2023/07/20 07:46:27;;;;;;;0.60;0.60;;;17.20;99.90;;;;;;5012450;28;20387;-46
2023/07/20 07:48:53;;;;;;;1.20;0.85;;;17.50;99.90;;;;;;5012153;28;20026;-48
2023/07/20 07:51:19;;;;;;;0.70;0.60;;;17.80;99.90;;;;;;5010170;28;20050;-46
2023/07/20 07:53:45;;;;;;;1.30;0.88;;;18.00;99.90;;;;;;5011902;28;20021;-46
2023/07/20 07:56:11;;;;;;;1.70;0.88;;;18.30;99.90;;;;;;5012218;28;20092;-48
2023/07/20 07:58:37;;;;;;;0.70;0.70;;;18.40;99.90;;;;;;5012897;28;20101;-48
2023/07/20 08:01:02;;;;;;;1.77;0.60;;;18.70;99.90;;;;;;5012138;28;20025;-47
2023/07/20 08:03:28;;;;;;;1.45;0.88;;;19.20;99.90;;;;;;5011749;28;20034;-46
2023/07/20 08:05:59;;;;;;;0.60;0.52;;;19.20;99.90;;;;;;5034408;28;20026;-49
2023/07/20 08:08:25;;;;;;;0.77;0.60;;;19.10;99.90;;;;;;5012082;28;20116;-47
2023/07/20 08:10:53;;;;;;;1.20;0.57;;;18.90;99.90;;;;;;5011717;28;20113;-49
2023/07/20 08:13:19;;;;;;;1.20;0.60;;;18.80;99.90;;;;;;5010516;28;20041;-47
2023/07/20 08:15:49;;;;;;;0.70;0.55;;;19.00;99.90;;;;;;5027139;28;20487;-46
2023/07/20 08:18:14;;;;;;;0.75;0.55;;;19.00;99.90;;;;;;5012269;28;20018;-47
2023/07/20 08:20:43;;;;;;;2.35;0.80;;;19.20;99.90;;;;;;5011728;28;20045;-46
2023/07/20 08:23:09;;;;;;;0.70;0.60;;;19.50;99.90;;;;;;5011180;28;20396;-49
2023/07/20 08:25:39;;;;;;;0.90;0.52;;;19.60;99.90;;;;;;5011993;28;20088;-47
2023/07/20 08:28:04;;;;;;;2.00;0.80;;;20.00;99.90;;;;;;5011737;28;20014;-46
2023/07/20 08:30:46;;;;;;;0.80;0.70;;;20.90;99.30;;;;;;5012241;28;20021;-46
2023/07/20 08:33:19;;;;;;;0.50;0.50;;;21.70;97.00;;;;;;5011407;28;20026;-48
2023/07/20 08:35:45;;;;;;;0.38;0.38;;;22.70;95.20;;;;;;5012465;28;20010;-48
2023/07/20 08:38:10;;;;;;;3.55;0.52;;;23.60;93.10;;;;;;5011425;28;20018;-48
2023/07/20 08:40:45;;;;;;;0.55;0.50;;;24.30;91.30;;;;;;5011039;28;20025;-47
2023/07/20 08:43:11;;;;;;;0.75;0.47;;;25.10;86.10;;;;;;5011163;28;20088;-46
2023/07/20 08:45:39;;;;;;;1.23;0.85;;;25.90;83.10;;;;;;5010843;28;20101;-47
2023/07/20 08:48:06;;;;;;;1.17;0.63;;;26.60;80.10;;;;;;5011722;28;20500;-49
2023/07/20 08:50:32;;;;;;;0.50;0.50;;;27.30;79.20;;;;;;5011490;28;20301;-47
2023/07/20 08:52:59;;;;;;;1.13;0.60;;;28.10;76.10;;;;;;5010354;28;20018;-50
2023/07/20 08:55:27;;;;;;;2.35;0.60;;;28.50;75.20;;;;;;5011320;28;20026;-49
2023/07/20 08:57:55;;;;;;;1.08;0.90;;;29.70;72.10;;;;;;5011158;28;20037;-49
2023/07/20 09:00:21;;;;;;;0.88;0.65;;;29.80;68.20;;;;;;5010021;28;20037;-51
2023/07/20 09:02:50;;;;;;;0.60;0.60;;;29.20;68.10;;;;;;5010882;28;20029;-47
2023/07/20 09:05:15;;;;;;;1.53;0.50;;;28.20;70.20;;;;;;5010787;28;20022;-48
2023/07/20 09:07:41;;;;;;;0.55;0.47;;;27.40;71.50;;;;;;5011149;28;20052;-47
2023/07/20 09:10:07;;;;;;;1.38;0.50;;;26.30;73.40;;;;;;5011420;28;20092;-47
2023/07/20 09:12:40;;;;;;;2.03;0.65;;;26.10;75.00;;;;;;5010643;28;20053;-49
2023/07/20 09:15:07;;;;;;;1.73;1.02;;;25.50;76.10;;;;;;5010959;28;20487;-49
2023/07/20 09:17:33;;;;;;;0.93;0.70;;;25.10;77.20;;;;;;5010925;28;20519;-47
2023/07/20 09:20:07;;;;;;;1.42;0.70;;;25.00;78.70;;;;;;5010845;28;20049;-47
2023/07/20 09:22:33;;;;;;;3.05;0.70;;;26.10;76.60;;;;;;5010238;28;20117;-47
2023/07/20 09:24:59;;;;;;;1.30;0.60;;;27.50;73.00;;;;;;5011069;28;20148;-47
2023/07/20 09:27:38;;;;;;;0.98;0.77;;;28.40;69.70;;;;;;5010799;28;20022;-48
2023/07/20 09:30:07;;;;;;;3.65;0.77;;;29.40;65.20;;;;;;5008602;28;20034;-49
2023/07/20 09:32:39;;;;;;;1.30;1.00;;;30.20;65.30;;;;;;5009105;28;20026;-48
2023/07/20 09:35:05;;;;;;;3.67;0.70;;;31.20;63.10;;;;;;5009685;28;20049;-50
2023/07/20 09:37:33;;;;;;;1.65;0.60;;;31.90;63.10;;;;;;5009751;28;20051;-47
2023/07/20 09:39:59;;;;;;;2.80;0.63;;;31.40;58.90;;;;;;5009659;28;20349;-48
2023/07/20 09:42:25;;;;;;;1.33;0.60;;;31.40;57.80;;;;;;5009088;28;20205;-49
2023/07/20 09:44:51;;;;;;;0.85;0.40;;;31.90;58.30;;;;;;5009554;28;20042;-50
2023/07/20 09:47:23;;;;;;;1.10;0.50;;;32.40;58.50;;;;;;5014580;28;20463;-47
2023/07/20 09:49:49;;;;;;;0.75;0.47;;;33.20;57.00;;;;;;5009535;28;20018;-47
2023/07/20 09:52:15;;;;;;;1.10;0.60;;;33.50;57.00;;;;;;5008966;28;20084;-49
2023/07/20 09:54:44;;;;;;;1.02;0.40;;;32.90;55.00;;;;;;5009523;28;20097;-49
2023/07/20 09:57:13;;;;;;;;;;;32.90;54.10;;;;;;5007379;28;20022;-48
2023/07/20 09:59:39;;;;;;;0.50;0.43;;;32.40;52.10;;;;;;5001693;28;19909;-47
2023/07/20 10:02:16;;;;;;;1.05;0.68;;;32.90;53.40;;;;;;5000874;28;20074;-49
2023/07/20 10:04:43;;;;;;;1.33;0.60;;;32.90;52.80;;;;;;5001755;28;20498;-47
2023/07/20 10:07:13;;;;;;;0.70;0.60;;;33.30;51.40;;;;;;5001683;28;20069;-48
2023/07/20 10:09:42;;;;;;;0.95;0.60;;;33.70;52.50;;;;;;5001058;28;20667;-48
2023/07/20 10:12:09;;;;;;;1.13;0.60;;;33.20;52.70;;;;;;5009089;28;20157;-50
2023/07/20 10:14:41;;;;;;;2.47;0.77;;;33.20;52.30;;;;;;5001459;28;20496;-48
2023/07/20 10:17:11;;;;;;;0.60;0.50;;;33.40;51.40;;;;;;5009519;28;20050;-48
2023/07/20 10:19:47;;;;;;;0.77;0.60;;;33.70;51.20;;;;;;5001518;28;20022;-49
2023/07/20 10:22:16;;;;;;;0.55;0.55;;;34.00;48.80;;;;;;5001566;28;20387;-51
2023/07/20 10:24:45;;;;;;;;;;;33.80;50.40;;;;;;5024186;28;20057;-49
2023/07/20 10:27:11;;;;;;;1.73;0.50;;;33.90;49.60;;;;;;5012967;28;20311;-50
2023/07/20 10:29:37;;;;;;;0.32;0.32;;;33.50;48.50;;;;;;5013857;28;20224;-47
2023/07/20 10:32:04;;;;;;;1.25;0.50;;;31.80;50.70;;;;;;5000677;28;20027;-47
2023/07/20 10:34:29;;;;;;;1.02;0.52;;;30.90;52.00;;;;;;5017009;28;20478;-48
2023/07/20 10:36:55;;;;;;;0.60;0.50;;;31.50;53.00;;;;;;4999204;28;20038;-47
2023/07/20 10:39:30;;;;;;;0.43;0.30;;;32.30;51.40;;;;;;5014517;28;20025;-47
2023/07/20 10:42:09;;;;;;;1.55;0.52;;;32.60;52.10;;;;;;5006423;28;20025;-48
2023/07/20 10:44:40;;;;;;;0.50;0.45;;;33.10;52.10;;;;;;5024547;28;20022;-45
2023/07/20 10:47:13;;;;;;;0.40;0.40;;;33.70;51.30;;;;;;5006665;28;20088;-45
2023/07/20 10:49:57;;;;;;;1.90;0.50;;;33.00;49.00;;;;;;5008008;28;20411;-45
2023/07/20 10:52:23;;;;;;;1.10;0.60;;;31.80;51.50;;;;;;5008080;28;20032;-46
2023/07/20 10:54:49;;;;;;;2.38;0.60;;;30.80;51.10;;;;;;5011806;28;20026;-47
2023/07/20 10:57:25;;;;;;;1.40;0.60;;;29.70;52.00;;;;;;5008847;28;20030;-44
2023/07/20 10:59:51;;;;;;;0.50;0.50;;;29.50;53.80;;;;;;5008800;28;20022;-44
2023/07/20 11:02:19;;;;;;;1.48;0.40;;;29.60;52.60;;;;;;5008373;28;20017;-44
2023/07/20 11:04:46;;;;;;;1.73;0.55;;;28.50;53.90;;;;;;5009065;28;20018;-47
2023/07/20 11:07:17;;;;;;;1.48;0.70;;;27.50;55.70;;;;;;5015460;28;20095;-46
2023/07/20 11:09:42;;;;;;;0.75;0.75;;;26.60;58.60;;;;;;5005211;28;20026;-47
2023/07/20 11:12:16;;;;;;;1.38;1.00;;;26.20;60.10;;;;;;5007696;28;20034;-47
2023/07/20 11:14:57;;;;;;;1.33;0.60;;;27.30;59.10;;;;;;5008487;28;20120;-47
2023/07/20 11:17:35;;;;;;;0.70;0.52;;;28.70;58.60;;;;;;5009124;28;20018;-46
2023/07/20 11:20:02;;;;;;;0.40;0.40;;;29.80;55.00;;;;;;5009237;28;20028;-47
2023/07/20 11:22:30;;;;;;;0.70;0.60;;;31.10;51.90;;;;;;5007400;28;20454;-47
2023/07/20 11:24:56;;;;;;;1.05;0.50;;;31.60;52.70;;;;;;5009278;28;20056;-48
2023/07/20 11:27:22;;;;;;;0.82;0.60;;;32.60;52.40;;;;;;5009100;28;20057;-47
2023/07/20 11:29:48;;;;;;;2.30;0.60;;;33.60;50.60;;;;;;5008132;28;20061;-47
2023/07/20 11:32:21;;;;;;;0.85;0.45;;;32.80;50.40;;;;;;5008402;28;20522;-47
2023/07/20 11:34:47;;;;;;;0.60;0.50;;;31.40;50.20;;;;;;5019535;28;20467;-47
2023/07/20 11:37:13;;;;;;;1.05;0.65;;;30.00;52.80;;;;;;5007779;28;20380;-47
2023/07/20 11:39:39;;;;;;;1.02;0.80;;;28.60;55.10;;;;;;5008875;28;20479;-46
2023/07/20 11:42:06;;;;;;;1.45;0.73;;;27.30;57.20;;;;;;5008250;28;20064;-46
2023/07/20 11:44:32;;;;;;;2.80;0.70;;;26.60;58.50;;;;;;5010943;28;20492;-47
2023/07/20 11:47:02;;;;;;;1.17;0.80;;;27.70;57.30;;;;;;5008932;28;20637;-46
2023/07/20 11:49:28;;;;;;;1.27;0.50;;;29.20;56.10;;;;;;5011487;28;20025;-50
2023/07/20 11:51:55;;;;;;;1.00;0.70;;;30.50;54.40;;;;;;5027104;28;20026;-48
2023/07/20 11:54:20;;;;;;;0.73;0.55;;;31.00;53.90;;;;;;5012944;28;20065;-50
2023/07/20 11:56:46;;;;;;;1.48;0.75;;;31.10;52.00;;;;;;5012952;28;20060;-47
2023/07/20 11:59:11;;;;;;;1.35;0.70;;;30.50;53.70;;;;;;5012656;28;20105;-48
2023/07/20 12:01:37;;;;;;;1.60;0.63;;;29.10;54.00;;;;;;5012263;28;20033;-47
2023/07/20 12:04:03;;;;;;;1.38;0.82;;;29.00;55.10;;;;;;5013760;28;20025;-49
2023/07/20 12:06:30;;;;;;;1.35;0.60;;;29.20;54.50;;;;;;5027759;28;20026;-46
2023/07/20 12:08:57;;;;;;;0.70;0.70;;;28.20;55.80;;;;;;5012303;28;20121;-46
2023/07/20 12:11:39;;;;;;;1.48;0.75;;;27.30;56.10;;;;;;5011873;28;20375;-46
2023/07/20 12:14:07;;;;;;;2.00;0.80;;;26.40;58.10;;;;;;5011659;28;20026;-47
2023/07/20 12:16:35;;;;;;;1.90;0.82;;;26.00;58.80;;;;;;5012012;28;20411;-47
2023/07/20 12:19:05;;;;;;;1.77;0.80;;;26.60;61.60;;;;;;5011693;28;20471;-48
2023/07/20 12:21:33;;;;;;;1.75;0.80;;;27.20;59.90;;;;;;5011829;28;20056;-47
2023/07/20 12:23:59;;;;;;;1.25;0.60;;;27.40;58.80;;;;;;5014350;28;20028;-47
2023/07/20 12:26:25;;;;;;;0.55;0.50;;;27.60;58.00;;;;;;5010556;28;20108;-47
2023/07/20 12:28:52;;;;;;;1.02;0.75;;;27.70;55.50;;;;;;5010438;28;20030;-47
2023/07/20 12:31:18;;;;;;;1.15;0.80;;;28.10;55.60;;;;;;5024944;28;20399;-48
2023/07/20 12:33:43;;;;;;;1.23;0.60;;;28.10;54.00;;;;;;5009813;28;20029;-48
2023/07/20 12:36:10;;;;;;;2.03;1.20;;;27.90;55.40;;;;;;5009985;28;20419;-49
2023/07/20 12:38:36;;;;;;;1.60;0.90;;;27.70;55.20;;;;;;5011350;28;20117;-47
2023/07/20 12:41:02;;;;;;;0.75;0.52;;;27.90;56.00;;;;;;5011452;28;20097;-48
2023/07/20 12:43:28;;;;;;;1.73;0.90;;;27.60;54.30;;;;;;5001577;28;20458;-49
2023/07/20 12:45:54;;;;;;;2.35;0.70;;;27.70;56.40;;;;;;5011132;28;20419;-47